sensor_id;sensor_type;location;lat;lon;timestamp;P1;durP1;ratioP1;P2;durP2;ratioP2
72791;SDS011;60907;53.268;8.764;2023-04-24T00:00:26;2.03;;;1.83;;
72791;SDS011;60907;53.268;8.764;2023-04-24T00:02:52;3.53;;;2.08;;
72791;SDS011;60907;53.268;8.764;2023-04-24T00:05:22;2.58;;;1.48;;
72791;SDS011;60907;53.268;8.764;2023-04-24T00:07:47;3.13;;;1.75;;
72791;SDS011;60907;53.268;8.764;2023-04-24T00:10:12;2.47;;;1.77;;
72791;SDS011;60907;53.268;8.764;2023-04-24T00:12:38;2.58;;;1.77;;
72791;SDS011;60907;53.268;8.764;2023-04-24T00:15:04;2.63;;;1.58;;
72791;SDS011;60907;53.268;8.764;2023-04-24T00:17:30;1.30;;;0.52;;
72791;SDS011;60907;53.268;8.764;2023-04-24T00:19:55;2.00;;;1.70;;
72791;SDS011;60907;53.268;8.764;2023-04-24T00:22:26;2.75;;;1.50;;
72791;SDS011;60907;53.268;8.764;2023-04-24T00:24:53;1.95;;;1.65;;
72791;SDS011;60907;53.268;8.764;2023-04-24T00:27:19;1.63;;;1.10;;
72791;SDS011;60907;53.268;8.764;2023-04-24T00:29:44;2.28;;;1.20;;
72791;SDS011;60907;53.268;8.764;2023-04-24T00:32:10;2.33;;;1.37;;
72791;SDS011;60907;53.268;8.764;2023-04-24T00:34:35;2.05;;;1.45;;
72791;SDS011;60907;53.268;8.764;2023-04-24T00:37:01;1.57;;;1.10;;
72791;SDS011;60907;53.268;8.764;2023-04-24T00:39:26;4.32;;;1.25;;
72791;SDS011;60907;53.268;8.764;2023-04-24T00:41:52;1.40;;;1.27;;
72791;SDS011;60907;53.268;8.764;2023-04-24T00:44:18;1.58;;;1.30;;
72791;SDS011;60907;53.268;8.764;2023-04-24T00:46:43;1.73;;;1.23;;
72791;SDS011;60907;53.268;8.764;2023-04-24T00:49:08;1.13;;;1.02;;
72791;SDS011;60907;53.268;8.764;2023-04-24T00:51:34;2.03;;;1.67;;
72791;SDS011;60907;53.268;8.764;2023-04-24T00:54:00;2.70;;;2.50;;
72791;SDS011;60907;53.268;8.764;2023-04-24T00:56:25;3.53;;;1.80;;
72791;SDS011;60907;53.268;8.764;2023-04-24T00:58:51;1.55;;;1.45;;
72791;SDS011;60907;53.268;8.764;2023-04-24T01:01:17;2.28;;;1.60;;
72791;SDS011;60907;53.268;8.764;2023-04-24T01:03:46;1.70;;;1.50;;
72791;SDS011;60907;53.268;8.764;2023-04-24T01:06:11;1.65;;;1.27;;
72791;SDS011;60907;53.268;8.764;2023-04-24T01:08:37;2.30;;;1.60;;
72791;SDS011;60907;53.268;8.764;2023-04-24T01:11:03;1.35;;;1.20;;
72791;SDS011;60907;53.268;8.764;2023-04-24T01:13:29;1.65;;;1.50;;
72791;SDS011;60907;53.268;8.764;2023-04-24T01:15:56;2.08;;;1.30;;
72791;SDS011;60907;53.268;8.764;2023-04-24T01:18:22;1.50;;;1.08;;
72791;SDS011;60907;53.268;8.764;2023-04-24T01:20:47;1.27;;;1.00;;
72791;SDS011;60907;53.268;8.764;2023-04-24T01:23:16;1.05;;;0.90;;
72791;SDS011;60907;53.268;8.764;2023-04-24T01:25:42;1.45;;;1.20;;
72791;SDS011;60907;53.268;8.764;2023-04-24T01:28:07;1.10;;;1.00;;
72791;SDS011;60907;53.268;8.764;2023-04-24T01:30:33;1.77;;;1.35;;
72791;SDS011;60907;53.268;8.764;2023-04-24T01:32:58;1.60;;;1.50;;
72791;SDS011;60907;53.268;8.764;2023-04-24T01:35:24;1.40;;;1.10;;
72791;SDS011;60907;53.268;8.764;2023-04-24T01:37:50;1.23;;;1.13;;
72791;SDS011;60907;53.268;8.764;2023-04-24T01:40:15;1.55;;;1.45;;
72791;SDS011;60907;53.268;8.764;2023-04-24T01:42:41;1.90;;;1.70;;
72791;SDS011;60907;53.268;8.764;2023-04-24T01:45:06;1.60;;;1.50;;
72791;SDS011;60907;53.268;8.764;2023-04-24T01:47:34;1.77;;;1.67;;
72791;SDS011;60907;53.268;8.764;2023-04-24T01:49:59;1.98;;;1.20;;
72791;SDS011;60907;53.268;8.764;2023-04-24T01:52:25;1.45;;;1.35;;
72791;SDS011;60907;53.268;8.764;2023-04-24T01:54:50;1.63;;;1.40;;
72791;SDS011;60907;53.268;8.764;2023-04-24T01:57:17;2.33;;;1.27;;
72791;SDS011;60907;53.268;8.764;2023-04-24T01:59:42;3.35;;;2.33;;
72791;SDS011;60907;53.268;8.764;2023-04-24T02:02:08;1.80;;;1.30;;
72791;SDS011;60907;53.268;8.764;2023-04-24T02:04:33;4.07;;;2.30;;
72791;SDS011;60907;53.268;8.764;2023-04-24T02:06:58;3.60;;;2.53;;
72791;SDS011;60907;53.268;8.764;2023-04-24T02:09:24;4.63;;;2.00;;
72791;SDS011;60907;53.268;8.764;2023-04-24T02:11:50;3.10;;;2.10;;
72791;SDS011;60907;53.268;8.764;2023-04-24T02:14:15;6.03;;;2.00;;
72791;SDS011;60907;53.268;8.764;2023-04-24T02:16:40;3.23;;;2.53;;
72791;SDS011;60907;53.268;8.764;2023-04-24T02:19:06;3.75;;;2.25;;
72791;SDS011;60907;53.268;8.764;2023-04-24T02:21:31;2.72;;;1.77;;
72791;SDS011;60907;53.268;8.764;2023-04-24T02:23:57;3.85;;;1.85;;
72791;SDS011;60907;53.268;8.764;2023-04-24T02:26:23;2.08;;;1.65;;
72791;SDS011;60907;53.268;8.764;2023-04-24T02:28:48;3.13;;;2.15;;
72791;SDS011;60907;53.268;8.764;2023-04-24T02:31:14;3.60;;;1.67;;
72791;SDS011;60907;53.268;8.764;2023-04-24T02:33:39;2.15;;;1.67;;
72791;SDS011;60907;53.268;8.764;2023-04-24T02:36:05;1.85;;;1.60;;
72791;SDS011;60907;53.268;8.764;2023-04-24T02:38:31;2.20;;;1.73;;
72791;SDS011;60907;53.268;8.764;2023-04-24T02:40:56;1.65;;;1.30;;
72791;SDS011;60907;53.268;8.764;2023-04-24T02:43:22;4.22;;;1.60;;
72791;SDS011;60907;53.268;8.764;2023-04-24T02:45:47;2.13;;;1.75;;
72791;SDS011;60907;53.268;8.764;2023-04-24T02:48:13;2.88;;;1.50;;
72791;SDS011;60907;53.268;8.764;2023-04-24T02:50:39;2.55;;;1.92;;
72791;SDS011;60907;53.268;8.764;2023-04-24T02:53:04;1.98;;;1.48;;
72791;SDS011;60907;53.268;8.764;2023-04-24T02:55:30;2.90;;;2.20;;
72791;SDS011;60907;53.268;8.764;2023-04-24T02:57:55;2.63;;;1.65;;
72791;SDS011;60907;53.268;8.764;2023-04-24T03:00:21;2.78;;;2.08;;
72791;SDS011;60907;53.268;8.764;2023-04-24T03:02:46;2.17;;;1.95;;
72791;SDS011;60907;53.268;8.764;2023-04-24T03:05:12;4.97;;;2.08;;
72791;SDS011;60907;53.268;8.764;2023-04-24T03:07:37;3.38;;;2.03;;
72791;SDS011;60907;53.268;8.764;2023-04-24T03:10:03;5.35;;;2.45;;
72791;SDS011;60907;53.268;8.764;2023-04-24T03:12:30;2.25;;;2.05;;
72791;SDS011;60907;53.268;8.764;2023-04-24T03:14:56;2.55;;;2.25;;
72791;SDS011;60907;53.268;8.764;2023-04-24T03:17:21;3.10;;;2.80;;
72791;SDS011;60907;53.268;8.764;2023-04-24T03:19:47;3.28;;;2.55;;
72791;SDS011;60907;53.268;8.764;2023-04-24T03:22:12;2.30;;;2.00;;
72791;SDS011;60907;53.268;8.764;2023-04-24T03:24:38;4.13;;;2.85;;
72791;SDS011;60907;53.268;8.764;2023-04-24T03:27:03;4.18;;;3.67;;
72791;SDS011;60907;53.268;8.764;2023-04-24T03:29:29;4.07;;;3.55;;
72791;SDS011;60907;53.268;8.764;2023-04-24T03:31:54;4.38;;;3.45;;
72791;SDS011;60907;53.268;8.764;2023-04-24T03:34:20;3.72;;;3.10;;
72791;SDS011;60907;53.268;8.764;2023-04-24T03:36:45;2.63;;;2.20;;
72791;SDS011;60907;53.268;8.764;2023-04-24T03:39:12;3.88;;;2.78;;
72791;SDS011;60907;53.268;8.764;2023-04-24T03:41:38;3.83;;;3.08;;
72791;SDS011;60907;53.268;8.764;2023-04-24T03:44:03;4.53;;;3.70;;
72791;SDS011;60907;53.268;8.764;2023-04-24T03:46:29;4.50;;;3.22;;
72791;SDS011;60907;53.268;8.764;2023-04-24T03:48:54;3.03;;;2.53;;
72791;SDS011;60907;53.268;8.764;2023-04-24T03:51:20;4.15;;;3.58;;
72791;SDS011;60907;53.268;8.764;2023-04-24T03:53:45;5.05;;;3.50;;
72791;SDS011;60907;53.268;8.764;2023-04-24T03:56:11;4.43;;;2.95;;
72791;SDS011;60907;53.268;8.764;2023-04-24T03:58:36;4.45;;;3.08;;
72791;SDS011;60907;53.268;8.764;2023-04-24T04:01:02;4.32;;;2.67;;
72791;SDS011;60907;53.268;8.764;2023-04-24T04:03:27;3.75;;;3.20;;
72791;SDS011;60907;53.268;8.764;2023-04-24T04:05:53;5.60;;;3.83;;
72791;SDS011;60907;53.268;8.764;2023-04-24T04:08:19;3.83;;;3.40;;
72791;SDS011;60907;53.268;8.764;2023-04-24T04:10:44;3.55;;;2.95;;
72791;SDS011;60907;53.268;8.764;2023-04-24T04:13:10;5.32;;;2.45;;
72791;SDS011;60907;53.268;8.764;2023-04-24T04:15:35;4.25;;;3.42;;
72791;SDS011;60907;53.268;8.764;2023-04-24T04:18:01;2.70;;;2.50;;
72791;SDS011;60907;53.268;8.764;2023-04-24T04:20:26;8.35;;;2.97;;
72791;SDS011;60907;53.268;8.764;2023-04-24T04:22:52;5.22;;;3.85;;
72791;SDS011;60907;53.268;8.764;2023-04-24T04:25:17;4.07;;;3.70;;
72791;SDS011;60907;53.268;8.764;2023-04-24T04:27:44;3.80;;;3.22;;
72791;SDS011;60907;53.268;8.764;2023-04-24T04:30:12;2.88;;;2.50;;
72791;SDS011;60907;53.268;8.764;2023-04-24T04:32:38;5.47;;;3.88;;
72791;SDS011;60907;53.268;8.764;2023-04-24T04:35:04;4.90;;;3.53;;
72791;SDS011;60907;53.268;8.764;2023-04-24T04:37:30;5.40;;;4.32;;
72791;SDS011;60907;53.268;8.764;2023-04-24T04:39:56;6.65;;;4.93;;
72791;SDS011;60907;53.268;8.764;2023-04-24T04:42:23;7.38;;;3.88;;
72791;SDS011;60907;53.268;8.764;2023-04-24T04:44:49;5.55;;;3.25;;
72791;SDS011;60907;53.268;8.764;2023-04-24T04:47:15;3.33;;;2.45;;
72791;SDS011;60907;53.268;8.764;2023-04-24T04:49:42;4.53;;;3.70;;
72791;SDS011;60907;53.268;8.764;2023-04-24T04:52:08;4.55;;;3.03;;
72791;SDS011;60907;53.268;8.764;2023-04-24T04:54:34;4.22;;;3.83;;
72791;SDS011;60907;53.268;8.764;2023-04-24T04:56:59;4.72;;;4.25;;
72791;SDS011;60907;53.268;8.764;2023-04-24T04:59:26;4.38;;;3.17;;
72791;SDS011;60907;53.268;8.764;2023-04-24T05:01:51;4.90;;;3.40;;
72791;SDS011;60907;53.268;8.764;2023-04-24T05:04:17;5.20;;;3.13;;
72791;SDS011;60907;53.268;8.764;2023-04-24T05:06:42;3.33;;;3.03;;
72791;SDS011;60907;53.268;8.764;2023-04-24T05:09:08;3.90;;;3.47;;
72791;SDS011;60907;53.268;8.764;2023-04-24T05:11:34;4.30;;;2.88;;
72791;SDS011;60907;53.268;8.764;2023-04-24T05:14:00;3.80;;;2.83;;
72791;SDS011;60907;53.268;8.764;2023-04-24T05:16:25;4.72;;;2.92;;
72791;SDS011;60907;53.268;8.764;2023-04-24T05:18:51;4.10;;;2.35;;
72791;SDS011;60907;53.268;8.764;2023-04-24T05:21:16;4.38;;;3.20;;
72791;SDS011;60907;53.268;8.764;2023-04-24T05:23:42;3.88;;;3.58;;
72791;SDS011;60907;53.268;8.764;2023-04-24T05:26:07;4.55;;;3.95;;
72791;SDS011;60907;53.268;8.764;2023-04-24T05:28:33;3.25;;;2.42;;
72791;SDS011;60907;53.268;8.764;2023-04-24T05:30:58;5.88;;;2.72;;
72791;SDS011;60907;53.268;8.764;2023-04-24T05:33:24;4.32;;;3.17;;
72791;SDS011;60907;53.268;8.764;2023-04-24T05:35:50;5.03;;;2.88;;
72791;SDS011;60907;53.268;8.764;2023-04-24T05:38:16;4.70;;;2.63;;
72791;SDS011;60907;53.268;8.764;2023-04-24T05:40:45;4.25;;;2.63;;
72791;SDS011;60907;53.268;8.764;2023-04-24T05:43:11;5.55;;;3.80;;
72791;SDS011;60907;53.268;8.764;2023-04-24T05:45:37;6.10;;;4.60;;
72791;SDS011;60907;53.268;8.764;2023-04-24T05:48:03;4.28;;;3.70;;
72791;SDS011;60907;53.268;8.764;2023-04-24T05:50:28;4.88;;;4.15;;
72791;SDS011;60907;53.268;8.764;2023-04-24T05:52:54;6.03;;;3.83;;
72791;SDS011;60907;53.268;8.764;2023-04-24T05:55:19;4.78;;;3.13;;
72791;SDS011;60907;53.268;8.764;2023-04-24T05:57:45;4.40;;;3.65;;
72791;SDS011;60907;53.268;8.764;2023-04-24T06:00:11;5.72;;;5.10;;
72791;SDS011;60907;53.268;8.764;2023-04-24T06:02:39;6.25;;;5.53;;
72791;SDS011;60907;53.268;8.764;2023-04-24T06:05:05;4.97;;;3.42;;
72791;SDS011;60907;53.268;8.764;2023-04-24T06:07:31;6.28;;;5.38;;
72791;SDS011;60907;53.268;8.764;2023-04-24T06:09:56;7.30;;;4.75;;
72791;SDS011;60907;53.268;8.764;2023-04-24T06:12:22;7.25;;;6.10;;
72791;SDS011;60907;53.268;8.764;2023-04-24T06:14:48;6.95;;;4.15;;
72791;SDS011;60907;53.268;8.764;2023-04-24T06:17:13;7.22;;;3.97;;
72791;SDS011;60907;53.268;8.764;2023-04-24T06:19:41;6.22;;;3.40;;
72791;SDS011;60907;53.268;8.764;2023-04-24T06:22:06;8.93;;;6.07;;
72791;SDS011;60907;53.268;8.764;2023-04-24T06:24:33;4.20;;;3.30;;
72791;SDS011;60907;53.268;8.764;2023-04-24T06:26:59;6.47;;;3.00;;
72791;SDS011;60907;53.268;8.764;2023-04-24T06:29:26;6.55;;;5.65;;
72791;SDS011;60907;53.268;8.764;2023-04-24T06:31:52;6.05;;;4.45;;
72791;SDS011;60907;53.268;8.764;2023-04-24T06:34:17;5.20;;;3.60;;
72791;SDS011;60907;53.268;8.764;2023-04-24T06:36:43;7.38;;;4.43;;
72791;SDS011;60907;53.268;8.764;2023-04-24T06:39:08;7.00;;;5.03;;
72791;SDS011;60907;53.268;8.764;2023-04-24T06:41:34;4.82;;;3.83;;
72791;SDS011;60907;53.268;8.764;2023-04-24T06:43:59;7.32;;;3.92;;
72791;SDS011;60907;53.268;8.764;2023-04-24T06:46:25;8.05;;;5.40;;
72791;SDS011;60907;53.268;8.764;2023-04-24T06:48:52;5.18;;;3.72;;
72791;SDS011;60907;53.268;8.764;2023-04-24T06:51:25;5.82;;;4.25;;
72791;SDS011;60907;53.268;8.764;2023-04-24T06:53:52;6.90;;;5.35;;
72791;SDS011;60907;53.268;8.764;2023-04-24T06:56:18;7.40;;;5.20;;
72791;SDS011;60907;53.268;8.764;2023-04-24T06:58:44;7.93;;;4.07;;
72791;SDS011;60907;53.268;8.764;2023-04-24T07:01:10;6.18;;;3.47;;
72791;SDS011;60907;53.268;8.764;2023-04-24T07:03:36;7.43;;;5.95;;
72791;SDS011;60907;53.268;8.764;2023-04-24T07:06:01;6.40;;;3.30;;
72791;SDS011;60907;53.268;8.764;2023-04-24T07:08:28;7.32;;;4.13;;
72791;SDS011;60907;53.268;8.764;2023-04-24T07:10:55;7.57;;;4.35;;
72791;SDS011;60907;53.268;8.764;2023-04-24T07:13:21;7.30;;;5.68;;
72791;SDS011;60907;53.268;8.764;2023-04-24T07:15:47;6.25;;;3.50;;
72791;SDS011;60907;53.268;8.764;2023-04-24T07:18:15;8.95;;;5.85;;
72791;SDS011;60907;53.268;8.764;2023-04-24T07:20:41;5.88;;;3.65;;
72791;SDS011;60907;53.268;8.764;2023-04-24T07:23:06;6.63;;;5.20;;
72791;SDS011;60907;53.268;8.764;2023-04-24T07:25:32;6.50;;;4.78;;
72791;SDS011;60907;53.268;8.764;2023-04-24T07:27:58;9.32;;;7.85;;
72791;SDS011;60907;53.268;8.764;2023-04-24T07:30:23;7.18;;;4.88;;
72791;SDS011;60907;53.268;8.764;2023-04-24T07:32:49;11.25;;;6.30;;
72791;SDS011;60907;53.268;8.764;2023-04-24T07:35:14;6.93;;;4.60;;
72791;SDS011;60907;53.268;8.764;2023-04-24T07:37:40;9.15;;;6.80;;
72791;SDS011;60907;53.268;8.764;2023-04-24T07:40:10;9.18;;;6.40;;
72791;SDS011;60907;53.268;8.764;2023-04-24T07:42:39;8.20;;;5.45;;
72791;SDS011;60907;53.268;8.764;2023-04-24T07:45:05;7.20;;;5.30;;
72791;SDS011;60907;53.268;8.764;2023-04-24T07:47:31;12.35;;;8.95;;
72791;SDS011;60907;53.268;8.764;2023-04-24T07:49:57;10.73;;;5.88;;
72791;SDS011;60907;53.268;8.764;2023-04-24T07:52:23;9.20;;;6.53;;
72791;SDS011;60907;53.268;8.764;2023-04-24T07:54:48;8.98;;;5.70;;
72791;SDS011;60907;53.268;8.764;2023-04-24T07:57:15;7.72;;;4.63;;
72791;SDS011;60907;53.268;8.764;2023-04-24T07:59:41;9.43;;;5.70;;
72791;SDS011;60907;53.268;8.764;2023-04-24T08:02:06;8.85;;;5.80;;
72791;SDS011;60907;53.268;8.764;2023-04-24T08:04:32;11.07;;;7.88;;
72791;SDS011;60907;53.268;8.764;2023-04-24T08:06:57;6.75;;;4.63;;
72791;SDS011;60907;53.268;8.764;2023-04-24T08:09:23;8.55;;;5.47;;
72791;SDS011;60907;53.268;8.764;2023-04-24T08:11:49;5.93;;;4.70;;
72791;SDS011;60907;53.268;8.764;2023-04-24T08:14:14;4.55;;;3.70;;
72791;SDS011;60907;53.268;8.764;2023-04-24T08:16:40;7.45;;;5.10;;
72791;SDS011;60907;53.268;8.764;2023-04-24T08:19:06;8.60;;;6.93;;
72791;SDS011;60907;53.268;8.764;2023-04-24T08:21:31;7.80;;;6.20;;
72791;SDS011;60907;53.268;8.764;2023-04-24T08:23:57;8.23;;;5.53;;
72791;SDS011;60907;53.268;8.764;2023-04-24T08:26:23;7.82;;;5.93;;
72791;SDS011;60907;53.268;8.764;2023-04-24T08:28:48;3.88;;;3.42;;
72791;SDS011;60907;53.268;8.764;2023-04-24T08:31:14;7.10;;;6.00;;
72791;SDS011;60907;53.268;8.764;2023-04-24T08:33:40;7.65;;;5.07;;
72791;SDS011;60907;53.268;8.764;2023-04-24T08:36:06;8.77;;;4.50;;
72791;SDS011;60907;53.268;8.764;2023-04-24T08:38:32;7.70;;;5.40;;
72791;SDS011;60907;53.268;8.764;2023-04-24T08:40:59;7.80;;;5.35;;
72791;SDS011;60907;53.268;8.764;2023-04-24T08:43:25;6.75;;;4.43;;
72791;SDS011;60907;53.268;8.764;2023-04-24T08:45:52;10.00;;;7.22;;
72791;SDS011;60907;53.268;8.764;2023-04-24T08:48:18;8.10;;;5.28;;
72791;SDS011;60907;53.268;8.764;2023-04-24T08:50:43;5.63;;;3.97;;
72791;SDS011;60907;53.268;8.764;2023-04-24T08:53:10;5.70;;;3.75;;
72791;SDS011;60907;53.268;8.764;2023-04-24T08:55:35;6.00;;;3.97;;
72791;SDS011;60907;53.268;8.764;2023-04-24T08:58:02;7.32;;;5.15;;
72791;SDS011;60907;53.268;8.764;2023-04-24T09:00:28;6.90;;;4.45;;
72791;SDS011;60907;53.268;8.764;2023-04-24T09:02:53;6.70;;;4.03;;
72791;SDS011;60907;53.268;8.764;2023-04-24T09:05:20;7.85;;;5.07;;
72791;SDS011;60907;53.268;8.764;2023-04-24T09:07:49;7.95;;;5.93;;
72791;SDS011;60907;53.268;8.764;2023-04-24T09:10:16;7.18;;;5.15;;
72791;SDS011;60907;53.268;8.764;2023-04-24T09:12:42;8.57;;;6.05;;
72791;SDS011;60907;53.268;8.764;2023-04-24T09:15:08;10.38;;;7.32;;
72791;SDS011;60907;53.268;8.764;2023-04-24T09:17:34;9.13;;;5.40;;
72791;SDS011;60907;53.268;8.764;2023-04-24T09:20:00;9.35;;;7.05;;
72791;SDS011;60907;53.268;8.764;2023-04-24T09:22:28;9.13;;;5.75;;
72791;SDS011;60907;53.268;8.764;2023-04-24T09:25:04;8.27;;;6.50;;
72791;SDS011;60907;53.268;8.764;2023-04-24T09:27:34;6.40;;;3.90;;
72791;SDS011;60907;53.268;8.764;2023-04-24T09:30:00;8.55;;;4.68;;
72791;SDS011;60907;53.268;8.764;2023-04-24T09:32:26;6.72;;;4.82;;
72791;SDS011;60907;53.268;8.764;2023-04-24T09:35:05;9.90;;;6.80;;
72791;SDS011;60907;53.268;8.764;2023-04-24T09:37:39;9.25;;;5.45;;
72791;SDS011;60907;53.268;8.764;2023-04-24T09:42:59;7.50;;;5.10;;
72791;SDS011;60907;53.268;8.764;2023-04-24T09:45:37;8.68;;;5.65;;
72791;SDS011;60907;53.268;8.764;2023-04-24T09:48:08;7.18;;;6.05;;
72791;SDS011;60907;53.268;8.764;2023-04-24T09:50:35;10.38;;;7.43;;
72791;SDS011;60907;53.268;8.764;2023-04-24T09:53:04;9.43;;;6.72;;
72791;SDS011;60907;53.268;8.764;2023-04-24T09:55:30;7.97;;;5.45;;
72791;SDS011;60907;53.268;8.764;2023-04-24T09:58:00;7.75;;;5.97;;
72791;SDS011;60907;53.268;8.764;2023-04-24T10:00:27;8.90;;;5.93;;
72791;SDS011;60907;53.268;8.764;2023-04-24T10:03:00;7.60;;;5.28;;
72791;SDS011;60907;53.268;8.764;2023-04-24T10:05:34;8.10;;;5.68;;
72791;SDS011;60907;53.268;8.764;2023-04-24T10:08:02;10.88;;;6.05;;
72791;SDS011;60907;53.268;8.764;2023-04-24T10:10:29;11.82;;;6.88;;
72791;SDS011;60907;53.268;8.764;2023-04-24T10:12:56;10.63;;;5.68;;
72791;SDS011;60907;53.268;8.764;2023-04-24T10:15:22;11.35;;;6.82;;
72791;SDS011;60907;53.268;8.764;2023-04-24T10:17:50;8.52;;;4.85;;
72791;SDS011;60907;53.268;8.764;2023-04-24T10:20:22;9.30;;;5.55;;
72791;SDS011;60907;53.268;8.764;2023-04-24T10:22:50;11.02;;;6.20;;
72791;SDS011;60907;53.268;8.764;2023-04-24T10:25:21;8.85;;;6.03;;
72791;SDS011;60907;53.268;8.764;2023-04-24T10:27:48;8.63;;;4.82;;
72791;SDS011;60907;53.268;8.764;2023-04-24T10:30:14;6.00;;;4.65;;
72791;SDS011;60907;53.268;8.764;2023-04-24T10:32:40;11.23;;;6.95;;
72791;SDS011;60907;53.268;8.764;2023-04-24T10:35:06;11.95;;;8.52;;
72791;SDS011;60907;53.268;8.764;2023-04-24T10:37:43;14.27;;;9.50;;
72791;SDS011;60907;53.268;8.764;2023-04-24T10:40:11;11.50;;;8.68;;
72791;SDS011;60907;53.268;8.764;2023-04-24T10:42:42;11.18;;;7.93;;
72791;SDS011;60907;53.268;8.764;2023-04-24T10:45:15;10.75;;;7.65;;
72791;SDS011;60907;53.268;8.764;2023-04-24T10:47:42;12.85;;;8.55;;
72791;SDS011;60907;53.268;8.764;2023-04-24T10:50:16;11.75;;;8.27;;
72791;SDS011;60907;53.268;8.764;2023-04-24T10:52:48;11.45;;;7.13;;
72791;SDS011;60907;53.268;8.764;2023-04-24T10:55:40;13.40;;;7.82;;
72791;SDS011;60907;53.268;8.764;2023-04-24T10:58:05;14.50;;;8.30;;
72791;SDS011;60907;53.268;8.764;2023-04-24T11:00:31;9.02;;;5.00;;
72791;SDS011;60907;53.268;8.764;2023-04-24T11:02:56;10.50;;;8.13;;
72791;SDS011;60907;53.268;8.764;2023-04-24T11:05:22;12.35;;;8.02;;
72791;SDS011;60907;53.268;8.764;2023-04-24T11:08:29;9.77;;;7.82;;
72791;SDS011;60907;53.268;8.764;2023-04-24T11:13:23;10.48;;;6.00;;
72791;SDS011;60907;53.268;8.764;2023-04-24T11:18:44;15.02;;;6.95;;
72791;SDS011;60907;53.268;8.764;2023-04-24T11:21:18;9.40;;;6.30;;
72791;SDS011;60907;53.268;8.764;2023-04-24T11:23:47;7.00;;;4.85;;
72791;SDS011;60907;53.268;8.764;2023-04-24T11:26:13;11.90;;;8.82;;
72791;SDS011;60907;53.268;8.764;2023-04-24T11:28:49;11.75;;;8.75;;
72791;SDS011;60907;53.268;8.764;2023-04-24T11:31:33;14.40;;;9.70;;
72791;SDS011;60907;53.268;8.764;2023-04-24T11:34:11;11.82;;;6.80;;
72791;SDS011;60907;53.268;8.764;2023-04-24T11:36:38;8.55;;;5.68;;
72791;SDS011;60907;53.268;8.764;2023-04-24T11:39:03;11.45;;;7.15;;
72791;SDS011;60907;53.268;8.764;2023-04-24T11:41:29;8.57;;;5.57;;
72791;SDS011;60907;53.268;8.764;2023-04-24T11:43:55;11.05;;;7.68;;
72791;SDS011;60907;53.268;8.764;2023-04-24T11:46:21;13.45;;;8.30;;
72791;SDS011;60907;53.268;8.764;2023-04-24T11:48:47;8.80;;;6.43;;
72791;SDS011;60907;53.268;8.764;2023-04-24T11:51:13;15.55;;;8.13;;
72791;SDS011;60907;53.268;8.764;2023-04-24T11:53:39;16.02;;;9.48;;
72791;SDS011;60907;53.268;8.764;2023-04-24T11:56:05;13.38;;;7.47;;
72791;SDS011;60907;53.268;8.764;2023-04-24T11:58:40;11.13;;;7.25;;
72791;SDS011;60907;53.268;8.764;2023-04-24T12:01:05;14.90;;;9.00;;
72791;SDS011;60907;53.268;8.764;2023-04-24T12:03:31;13.38;;;7.82;;
72791;SDS011;60907;53.268;8.764;2023-04-24T12:06:09;15.75;;;8.55;;
72791;SDS011;60907;53.268;8.764;2023-04-24T12:11:04;16.50;;;9.25;;
72791;SDS011;60907;53.268;8.764;2023-04-24T12:13:32;13.48;;;7.32;;
72791;SDS011;60907;53.268;8.764;2023-04-24T12:15:58;10.25;;;6.43;;
72791;SDS011;60907;53.268;8.764;2023-04-24T12:18:23;14.75;;;8.25;;
72791;SDS011;60907;53.268;8.764;2023-04-24T12:20:49;9.23;;;4.75;;
72791;SDS011;60907;53.268;8.764;2023-04-24T12:23:15;14.15;;;7.65;;
72791;SDS011;60907;53.268;8.764;2023-04-24T12:25:40;17.30;;;8.93;;
72791;SDS011;60907;53.268;8.764;2023-04-24T12:30:38;12.73;;;6.60;;
72791;SDS011;60907;53.268;8.764;2023-04-24T12:33:09;11.80;;;6.13;;
72791;SDS011;60907;53.268;8.764;2023-04-24T12:35:35;13.65;;;7.97;;
72791;SDS011;60907;53.268;8.764;2023-04-24T12:38:07;11.20;;;6.93;;
72791;SDS011;60907;53.268;8.764;2023-04-24T12:40:33;11.20;;;6.28;;
72791;SDS011;60907;53.268;8.764;2023-04-24T12:42:59;12.07;;;6.72;;
72791;SDS011;60907;53.268;8.764;2023-04-24T12:45:24;10.30;;;5.05;;
72791;SDS011;60907;53.268;8.764;2023-04-24T12:47:50;9.55;;;5.50;;
72791;SDS011;60907;53.268;8.764;2023-04-24T12:50:16;6.30;;;4.60;;
72791;SDS011;60907;53.268;8.764;2023-04-24T12:52:42;7.07;;;4.95;;
72791;SDS011;60907;53.268;8.764;2023-04-24T12:55:08;4.30;;;3.40;;
72791;SDS011;60907;53.268;8.764;2023-04-24T12:57:34;6.40;;;4.22;;
72791;SDS011;60907;53.268;8.764;2023-04-24T13:00:05;8.50;;;3.90;;
72791;SDS011;60907;53.268;8.764;2023-04-24T13:02:31;8.20;;;4.90;;
72791;SDS011;60907;53.268;8.764;2023-04-24T13:05:00;8.25;;;4.43;;
72791;SDS011;60907;53.268;8.764;2023-04-24T13:07:26;8.30;;;4.75;;
72791;SDS011;60907;53.268;8.764;2023-04-24T13:09:52;7.47;;;4.32;;
72791;SDS011;60907;53.268;8.764;2023-04-24T13:12:19;6.57;;;3.63;;
72791;SDS011;60907;53.268;8.764;2023-04-24T13:14:45;7.22;;;3.08;;
72791;SDS011;60907;53.268;8.764;2023-04-24T13:17:10;7.35;;;4.07;;
72791;SDS011;60907;53.268;8.764;2023-04-24T13:19:38;6.53;;;3.70;;
72791;SDS011;60907;53.268;8.764;2023-04-24T13:22:08;8.43;;;4.97;;
72791;SDS011;60907;53.268;8.764;2023-04-24T13:24:35;6.53;;;4.35;;
72791;SDS011;60907;53.268;8.764;2023-04-24T13:27:00;9.80;;;4.55;;
72791;SDS011;60907;53.268;8.764;2023-04-24T13:29:27;8.65;;;5.43;;
72791;SDS011;60907;53.268;8.764;2023-04-24T13:31:53;6.15;;;3.78;;
72791;SDS011;60907;53.268;8.764;2023-04-24T13:34:23;8.57;;;4.22;;
72791;SDS011;60907;53.268;8.764;2023-04-24T13:36:52;9.35;;;5.63;;
72791;SDS011;60907;53.268;8.764;2023-04-24T13:39:19;10.95;;;6.05;;
72791;SDS011;60907;53.268;8.764;2023-04-24T13:41:44;12.15;;;6.65;;
72791;SDS011;60907;53.268;8.764;2023-04-24T13:44:12;12.18;;;7.38;;
72791;SDS011;60907;53.268;8.764;2023-04-24T13:46:37;12.40;;;7.13;;
72791;SDS011;60907;53.268;8.764;2023-04-24T13:49:03;13.40;;;7.22;;
72791;SDS011;60907;53.268;8.764;2023-04-24T13:51:32;15.95;;;7.90;;
72791;SDS011;60907;53.268;8.764;2023-04-24T13:53:57;14.40;;;6.45;;
72791;SDS011;60907;53.268;8.764;2023-04-24T13:56:23;11.52;;;6.40;;
72791;SDS011;60907;53.268;8.764;2023-04-24T13:58:48;12.00;;;6.40;;
72791;SDS011;60907;53.268;8.764;2023-04-24T14:01:14;12.18;;;6.20;;
72791;SDS011;60907;53.268;8.764;2023-04-24T14:03:40;11.50;;;6.18;;
72791;SDS011;60907;53.268;8.764;2023-04-24T14:06:06;12.25;;;6.50;;
72791;SDS011;60907;53.268;8.764;2023-04-24T14:08:32;14.55;;;6.88;;
72791;SDS011;60907;53.268;8.764;2023-04-24T14:10:57;11.95;;;6.68;;
72791;SDS011;60907;53.268;8.764;2023-04-24T14:13:23;13.30;;;6.60;;
72791;SDS011;60907;53.268;8.764;2023-04-24T14:15:49;11.65;;;6.40;;
72791;SDS011;60907;53.268;8.764;2023-04-24T14:18:14;15.00;;;6.88;;
72791;SDS011;60907;53.268;8.764;2023-04-24T14:20:40;13.20;;;6.93;;
72791;SDS011;60907;53.268;8.764;2023-04-24T14:23:05;13.50;;;6.30;;
72791;SDS011;60907;53.268;8.764;2023-04-24T14:25:31;11.80;;;6.32;;
72791;SDS011;60907;53.268;8.764;2023-04-24T14:27:56;13.57;;;5.72;;
72791;SDS011;60907;53.268;8.764;2023-04-24T14:30:22;10.50;;;6.15;;
72791;SDS011;60907;53.268;8.764;2023-04-24T14:32:48;9.90;;;5.47;;
72791;SDS011;60907;53.268;8.764;2023-04-24T14:35:13;10.27;;;5.38;;
72791;SDS011;60907;53.268;8.764;2023-04-24T14:37:39;11.02;;;4.95;;
72791;SDS011;60907;53.268;8.764;2023-04-24T14:40:06;9.05;;;4.70;;
72791;SDS011;60907;53.268;8.764;2023-04-24T14:42:33;7.82;;;4.93;;
72791;SDS011;60907;53.268;8.764;2023-04-24T14:44:58;13.52;;;5.10;;
72791;SDS011;60907;53.268;8.764;2023-04-24T14:47:24;13.40;;;5.38;;
72791;SDS011;60907;53.268;8.764;2023-04-24T14:49:50;7.38;;;4.85;;
72791;SDS011;60907;53.268;8.764;2023-04-24T14:52:15;8.90;;;4.35;;
72791;SDS011;60907;53.268;8.764;2023-04-24T14:54:41;10.48;;;4.68;;